الصفحة الرئيسية
METAR-TAF:

METAR-TAF

مطار :

Four Corners Regional Airport

فارمينغتون, نيومكسيكو, الولايات المتحدة

دائرة عرض: 36-44-37N, خط طول: 108-13-45W, ارتفاع: 1677 متر

مراقبة الطقس الحالي

تاريخ ووقت الإصدار 1ساعة و 3 دقيقة قبل الساعة 21:53UTC
ريح 11 عقدة من الغرب
درجة الحرارة 13°درجة مئوية
الرطوبة 35%
ضغط 1017 hPa
الرؤية: 16.1 كم
غيوم متفرقة على ارتفاع 6000 قدم

METAR: KFMN 232153Z 28011KT 10SM SCT060 13/M02 A3004 RMK AO2 SLP166 T01331022

زمن: 16:56 (22:56 UTC)

توقعات

تاريخ ووقت الإصدار 5ساعات و 27 دقيقة قبل الساعة 17:29UTC
التوقعات صالحة من23 الساعة 18 UTC إلى 24 الساعة 18 UTC
ريح 10 عقدة من الغرب
الرؤية: 10 كم
غيوم قليلة على ارتفاع 4000 قدم
غيوم مفككة على ارتفاع 20000 قدم
من 24 الساعة 0200 UTC
ريح 4 عقدةمن اتجاهات متغيرة
الرؤية: 10 كم
غيوم متفرقة على ارتفاع 10000 قدم
من 24 الساعة 0600 UTC
ريح 6 عقدة من الشرق
الرؤية: 10 كم
غيوم متفرقة على ارتفاع 8000 قدم

TAF: KFMN 231729Z 2318/2418 28010KT P6SM FEW040 BKN200 FM240200 VRB04KT P6SM SCT100 FM240600 08006KT P6SM SCT080

أرصاد الطقس والتوقعات من أكثر من 4000 مطار (تقارير الطقس للمطار METAR والتنبؤ بالطقس بالمطارTAF).

المحطات المتاحة هي النقط الصفراء والحمراء على الخريطة.

حرك المؤشر فوق النقطة لمعرفة اسم المحطة.

ثم انقر لمعرفة أرصاد وتوقعات الطقس.

لتغيير الخارطة: اضغط على الأزرار الخضراء مع رمز الصليب الأسود للتكبير. على الزر الأخضر مع شرطة للتصغير، أو على الأسهم الخضراء للخرائط المجاورة.


METAR-TAF: